Elkhorn, West Virginia
Current Conditions -  °F | °C
As of 9:52 PM on Tuesday 21 Oct 2014 (Local Time) from KBLF Reporting Station
Overcast Overcast  
Wind Chill: 40°   Ceiling: 1200
Heat Index: 44°   Visibility: 10mi
Dew Point: 38°   Wind: 8mph
Humidity: 79%   Direction: 300°WNW
Pressure: 30.04"   Gusts: 18mph
Location:  37.39°N, 81.41°W
Report Text: KBLF 220152Z AUTO 30007G16KT 10SM BKN012 OVC019 07/03 A3004 RMK AO2 RAE0058 SLP167 P0000 T00670033
Loading
Personal Weather Stations






























Interactive Weather Map
Tropical Storm Tracking
New forecast layout! Learn more

10-Day Weather Forecast

Advertisements
Track Severe Weather on mobile